createdAt,value
2022-08-11T00:01:11.544Z,17.46
2022-08-11T00:03:50.730Z,17.41
2022-08-11T00:06:32.741Z,17.34
2022-08-11T00:09:04.512Z,17.30
2022-08-11T00:11:58.813Z,17.22
2022-08-11T00:14:36.784Z,17.20
2022-08-11T00:17:15.991Z,17.18
2022-08-11T00:20:12.111Z,17.15
2022-08-11T00:22:44.405Z,17.12
2022-08-11T00:25:21.661Z,17.08
2022-08-11T00:27:49.716Z,17.08
2022-08-11T00:30:17.780Z,17.04
2022-08-11T00:32:59.587Z,16.97
2022-08-11T00:35:51.272Z,16.95
2022-08-11T00:38:32.101Z,16.95
2022-08-11T00:41:31.581Z,16.90
2022-08-11T00:44:23.662Z,16.88
2022-08-11T00:47:35.259Z,16.91
2022-08-11T00:50:27.169Z,16.84
2022-08-11T00:52:54.161Z,16.75
2022-08-11T00:55:47.112Z,16.76
2022-08-11T00:59:01.853Z,16.71
2022-08-11T01:01:38.387Z,16.71
2022-08-11T01:04:39.185Z,16.69
2022-08-11T01:08:01.335Z,16.66
2022-08-11T01:10:56.585Z,16.56
2022-08-11T01:14:14.937Z,16.52
2022-08-11T01:17:42.272Z,16.46
2022-08-11T01:20:46.927Z,16.42
2022-08-11T01:23:17.888Z,16.33
2022-08-11T01:26:34.940Z,16.29
2022-08-11T01:29:22.582Z,16.31
2022-08-11T01:32:55.337Z,16.30
2022-08-11T01:36:20.823Z,16.28
2022-08-11T01:39:18.525Z,16.22
2022-08-11T01:42:47.589Z,16.17
2022-08-11T01:45:48.086Z,16.12
2022-08-11T01:49:00.637Z,16.08
2022-08-11T01:52:30.165Z,16.03
2022-08-11T01:55:57.427Z,16.01
2022-08-11T01:58:55.933Z,16.01
2022-08-11T02:02:21.378Z,15.96
2022-08-11T02:05:49.592Z,15.94
2022-08-11T02:08:44.215Z,15.92
2022-08-11T02:11:31.608Z,15.89
2022-08-11T02:14:21.419Z,15.88
2022-08-11T02:17:21.314Z,15.91
2022-08-11T02:20:41.407Z,15.89
2022-08-11T02:24:04.440Z,15.87
2022-08-11T02:26:53.185Z,15.79
2022-08-11T02:29:48.141Z,15.75
2022-08-11T02:33:00.119Z,15.71
2022-08-11T02:35:42.857Z,15.66
2022-08-11T02:38:35.666Z,15.62
2022-08-11T02:41:43.723Z,15.61
2022-08-11T02:44:55.752Z,15.61
2022-08-11T02:48:56.893Z,15.59
2022-08-11T02:51:55.302Z,15.53
2022-08-11T02:54:56.352Z,15.50
2022-08-11T02:57:42.062Z,15.35
2022-08-11T03:00:19.473Z,15.31
2022-08-11T03:03:19.076Z,15.26
2022-08-11T03:06:46.691Z,15.25
2022-08-11T03:09:42.428Z,15.20
2022-08-11T03:13:40.292Z,15.20
2022-08-11T03:16:53.262Z,15.18
2022-08-11T03:20:11.435Z,15.18
2022-08-11T03:23:03.145Z,15.10
2022-08-11T03:25:54.634Z,15.10
2022-08-11T03:29:05.133Z,15.03
2022-08-11T03:32:30.004Z,15.02
2022-08-11T03:35:03.192Z,15.01
2022-08-11T03:38:12.856Z,14.99
2022-08-11T03:42:02.265Z,14.96
2022-08-11T03:45:03.060Z,14.99
2022-08-11T03:48:05.086Z,14.99
2022-08-11T03:51:18.420Z,14.96
2022-08-11T03:54:33.501Z,14.94
2022-08-11T03:57:27.901Z,14.95
2022-08-11T04:00:55.697Z,14.92
2022-08-11T04:04:08.732Z,14.94
2022-08-11T04:06:56.742Z,14.90
2022-08-11T04:10:06.425Z,14.84
2022-08-11T04:13:12.744Z,14.82
2022-08-11T04:16:39.699Z,14.85
2022-08-11T04:20:02.109Z,14.88
2022-08-11T04:23:09.981Z,14.93
2022-08-11T04:26:22.568Z,14.98
2022-08-11T04:30:03.470Z,15.02
